sensor_id;sensor_type;location;lat;lon;timestamp;P1;durP1;ratioP1;P2;durP2;ratioP2
49488;SDS011;35382;51.484;11.476;2022-07-05T00:00:57;42.88;;;41.13;;
49488;SDS011;35382;51.484;11.476;2022-07-05T00:02:39;46.78;;;44.88;;
49488;SDS011;35382;51.484;11.476;2022-07-05T00:04:20;47.60;;;45.47;;
49488;SDS011;35382;51.484;11.476;2022-07-05T00:06:01;49.45;;;47.47;;
49488;SDS011;35382;51.484;11.476;2022-07-05T00:07:43;48.10;;;46.03;;
49488;SDS011;35382;51.484;11.476;2022-07-05T00:09:24;50.22;;;48.13;;
49488;SDS011;35382;51.484;11.476;2022-07-05T00:11:05;49.08;;;46.88;;
49488;SDS011;35382;51.484;11.476;2022-07-05T00:12:46;53.13;;;51.03;;
49488;SDS011;35382;51.484;11.476;2022-07-05T00:14:27;52.53;;;50.30;;
49488;SDS011;35382;51.484;11.476;2022-07-05T00:16:08;48.85;;;46.80;;
49488;SDS011;35382;51.484;11.476;2022-07-05T00:17:49;50.97;;;48.88;;
49488;SDS011;35382;51.484;11.476;2022-07-05T00:19:30;51.85;;;49.70;;
49488;SDS011;35382;51.484;11.476;2022-07-05T00:21:11;51.47;;;49.28;;
49488;SDS011;35382;51.484;11.476;2022-07-05T00:22:52;51.08;;;48.97;;
49488;SDS011;35382;51.484;11.476;2022-07-05T00:24:33;49.85;;;47.65;;
49488;SDS011;35382;51.484;11.476;2022-07-05T00:26:14;49.28;;;47.00;;
49488;SDS011;35382;51.484;11.476;2022-07-05T00:27:55;45.97;;;43.95;;
49488;SDS011;35382;51.484;11.476;2022-07-05T00:29:36;46.65;;;44.55;;
49488;SDS011;35382;51.484;11.476;2022-07-05T00:31:17;46.00;;;44.00;;
49488;SDS011;35382;51.484;11.476;2022-07-05T00:32:58;41.95;;;40.20;;
49488;SDS011;35382;51.484;11.476;2022-07-05T00:34:38;44.33;;;42.40;;
49488;SDS011;35382;51.484;11.476;2022-07-05T00:36:19;44.83;;;42.83;;
49488;SDS011;35382;51.484;11.476;2022-07-05T00:38:00;46.92;;;44.95;;
49488;SDS011;35382;51.484;11.476;2022-07-05T00:39:41;46.25;;;44.33;;
49488;SDS011;35382;51.484;11.476;2022-07-05T00:41:22;46.15;;;44.20;;
49488;SDS011;35382;51.484;11.476;2022-07-05T00:43:03;45.50;;;43.60;;
49488;SDS011;35382;51.484;11.476;2022-07-05T00:44:44;43.10;;;41.20;;
49488;SDS011;35382;51.484;11.476;2022-07-05T00:46:26;37.28;;;35.70;;
49488;SDS011;35382;51.484;11.476;2022-07-05T00:48:07;38.67;;;37.08;;
49488;SDS011;35382;51.484;11.476;2022-07-05T00:49:48;38.22;;;36.63;;
49488;SDS011;35382;51.484;11.476;2022-07-05T00:51:30;37.80;;;36.20;;
49488;SDS011;35382;51.484;11.476;2022-07-05T00:53:12;34.10;;;32.67;;
49488;SDS011;35382;51.484;11.476;2022-07-05T00:54:54;36.33;;;34.72;;
49488;SDS011;35382;51.484;11.476;2022-07-05T00:56:34;36.20;;;34.42;;
49488;SDS011;35382;51.484;11.476;2022-07-05T00:58:15;36.05;;;34.47;;
49488;SDS011;35382;51.484;11.476;2022-07-05T00:59:56;31.80;;;30.42;;
49488;SDS011;35382;51.484;11.476;2022-07-05T01:01:37;32.70;;;31.20;;
49488;SDS011;35382;51.484;11.476;2022-07-05T01:03:18;33.78;;;32.17;;
49488;SDS011;35382;51.484;11.476;2022-07-05T01:04:59;32.28;;;30.80;;
49488;SDS011;35382;51.484;11.476;2022-07-05T01:06:42;34.40;;;32.88;;
49488;SDS011;35382;51.484;11.476;2022-07-05T01:08:25;34.83;;;33.33;;
49488;SDS011;35382;51.484;11.476;2022-07-05T01:10:06;30.98;;;29.63;;
49488;SDS011;35382;51.484;11.476;2022-07-05T01:11:48;29.48;;;28.17;;
49488;SDS011;35382;51.484;11.476;2022-07-05T01:13:30;30.40;;;29.10;;
49488;SDS011;35382;51.484;11.476;2022-07-05T01:15:11;30.88;;;29.45;;
49488;SDS011;35382;51.484;11.476;2022-07-05T01:16:52;30.85;;;29.50;;
49488;SDS011;35382;51.484;11.476;2022-07-05T01:18:35;29.45;;;28.15;;
49488;SDS011;35382;51.484;11.476;2022-07-05T01:20:16;28.65;;;27.35;;
49488;SDS011;35382;51.484;11.476;2022-07-05T01:21:57;26.95;;;25.75;;
49488;SDS011;35382;51.484;11.476;2022-07-05T01:23:44;28.63;;;25.85;;
49488;SDS011;35382;51.484;11.476;2022-07-05T01:25:26;27.48;;;26.08;;
49488;SDS011;35382;51.484;11.476;2022-07-05T01:27:08;25.48;;;24.17;;
49488;SDS011;35382;51.484;11.476;2022-07-05T01:28:49;23.40;;;22.23;;
49488;SDS011;35382;51.484;11.476;2022-07-05T01:30:30;22.75;;;21.55;;
49488;SDS011;35382;51.484;11.476;2022-07-05T01:32:14;22.60;;;21.52;;
49488;SDS011;35382;51.484;11.476;2022-07-05T01:33:55;22.42;;;21.23;;
49488;SDS011;35382;51.484;11.476;2022-07-05T01:35:36;21.90;;;20.80;;
49488;SDS011;35382;51.484;11.476;2022-07-05T01:37:17;21.83;;;20.83;;
49488;SDS011;35382;51.484;11.476;2022-07-05T01:38:58;20.63;;;19.48;;
49488;SDS011;35382;51.484;11.476;2022-07-05T01:40:40;20.40;;;19.45;;
49488;SDS011;35382;51.484;11.476;2022-07-05T01:42:21;20.50;;;19.50;;
49488;SDS011;35382;51.484;11.476;2022-07-05T01:44:03;19.27;;;18.38;;
49488;SDS011;35382;51.484;11.476;2022-07-05T01:45:45;19.00;;;17.90;;
49488;SDS011;35382;51.484;11.476;2022-07-05T01:47:27;18.20;;;17.20;;
49488;SDS011;35382;51.484;11.476;2022-07-05T01:49:09;17.48;;;16.48;;
49488;SDS011;35382;51.484;11.476;2022-07-05T01:50:53;17.70;;;16.63;;
49488;SDS011;35382;51.484;11.476;2022-07-05T01:52:37;16.08;;;15.07;;
49488;SDS011;35382;51.484;11.476;2022-07-05T01:54:22;15.55;;;14.48;;
49488;SDS011;35382;51.484;11.476;2022-07-05T01:56:03;15.98;;;14.98;;
49488;SDS011;35382;51.484;11.476;2022-07-05T01:57:44;16.20;;;15.20;;
49488;SDS011;35382;51.484;11.476;2022-07-05T01:59:26;13.60;;;12.48;;
49488;SDS011;35382;51.484;11.476;2022-07-05T02:01:08;10.90;;;10.10;;
49488;SDS011;35382;51.484;11.476;2022-07-05T02:02:49;11.40;;;10.52;;
49488;SDS011;35382;51.484;11.476;2022-07-05T02:04:30;10.38;;;9.57;;
49488;SDS011;35382;51.484;11.476;2022-07-05T02:06:14;10.30;;;9.30;;
49488;SDS011;35382;51.484;11.476;2022-07-05T02:07:55;10.80;;;9.90;;
49488;SDS011;35382;51.484;11.476;2022-07-05T02:09:36;10.40;;;9.52;;
49488;SDS011;35382;51.484;11.476;2022-07-05T02:11:17;10.20;;;9.40;;
49488;SDS011;35382;51.484;11.476;2022-07-05T02:12:58;10.70;;;9.80;;
49488;SDS011;35382;51.484;11.476;2022-07-05T02:14:39;11.20;;;10.25;;
49488;SDS011;35382;51.484;11.476;2022-07-05T02:16:25;11.18;;;10.45;;
49488;SDS011;35382;51.484;11.476;2022-07-05T02:18:08;12.20;;;11.23;;
49488;SDS011;35382;51.484;11.476;2022-07-05T02:19:52;11.95;;;11.05;;
49488;SDS011;35382;51.484;11.476;2022-07-05T02:21:34;12.13;;;11.23;;
49488;SDS011;35382;51.484;11.476;2022-07-05T02:23:17;11.55;;;10.55;;
49488;SDS011;35382;51.484;11.476;2022-07-05T02:24:58;13.35;;;12.25;;
49488;SDS011;35382;51.484;11.476;2022-07-05T02:32:45;11.77;;;11.05;;
49488;SDS011;35382;51.484;11.476;2022-07-05T02:34:26;13.55;;;12.52;;
49488;SDS011;35382;51.484;11.476;2022-07-05T02:36:11;14.50;;;13.60;;
49488;SDS011;35382;51.484;11.476;2022-07-05T02:37:53;14.00;;;13.13;;
49488;SDS011;35382;51.484;11.476;2022-07-05T02:39:34;14.60;;;13.60;;
49488;SDS011;35382;51.484;11.476;2022-07-05T02:41:16;15.80;;;14.60;;
49488;SDS011;35382;51.484;11.476;2022-07-05T02:43:00;14.40;;;13.40;;
49488;SDS011;35382;51.484;11.476;2022-07-05T02:44:41;15.05;;;13.95;;
49488;SDS011;35382;51.484;11.476;2022-07-05T02:46:23;14.80;;;13.90;;
49488;SDS011;35382;51.484;11.476;2022-07-05T02:48:05;14.60;;;13.52;;
49488;SDS011;35382;51.484;11.476;2022-07-05T02:49:47;16.40;;;15.20;;
49488;SDS011;35382;51.484;11.476;2022-07-05T02:51:28;16.05;;;15.05;;
49488;SDS011;35382;51.484;11.476;2022-07-05T02:53:10;16.77;;;15.68;;
49488;SDS011;35382;51.484;11.476;2022-07-05T02:54:52;15.75;;;14.65;;
49488;SDS011;35382;51.484;11.476;2022-07-05T02:56:34;16.85;;;15.75;;
49488;SDS011;35382;51.484;11.476;2022-07-05T02:58:15;17.60;;;16.58;;
49488;SDS011;35382;51.484;11.476;2022-07-05T02:59:58;18.02;;;16.83;;
49488;SDS011;35382;51.484;11.476;2022-07-05T03:01:48;17.70;;;16.60;;
49488;SDS011;35382;51.484;11.476;2022-07-05T03:03:31;15.90;;;14.95;;
49488;SDS011;35382;51.484;11.476;2022-07-05T03:05:12;17.02;;;15.50;;
49488;SDS011;35382;51.484;11.476;2022-07-05T03:06:58;16.17;;;15.07;;
49488;SDS011;35382;51.484;11.476;2022-07-05T03:08:42;16.55;;;15.60;;
49488;SDS011;35382;51.484;11.476;2022-07-05T03:10:24;17.27;;;16.08;;
49488;SDS011;35382;51.484;11.476;2022-07-05T03:12:07;16.80;;;15.60;;
49488;SDS011;35382;51.484;11.476;2022-07-05T03:13:50;17.00;;;15.90;;
49488;SDS011;35382;51.484;11.476;2022-07-05T03:15:32;18.05;;;16.77;;
49488;SDS011;35382;51.484;11.476;2022-07-05T03:17:13;17.23;;;16.02;;
49488;SDS011;35382;51.484;11.476;2022-07-05T03:18:54;16.77;;;15.75;;
49488;SDS011;35382;51.484;11.476;2022-07-05T03:20:36;17.95;;;16.70;;
49488;SDS011;35382;51.484;11.476;2022-07-05T03:22:17;17.60;;;16.13;;
49488;SDS011;35382;51.484;11.476;2022-07-05T03:23:58;16.15;;;15.25;;
49488;SDS011;35382;51.484;11.476;2022-07-05T03:25:39;17.40;;;16.45;;
49488;SDS011;35382;51.484;11.476;2022-07-05T03:27:20;18.00;;;16.88;;
49488;SDS011;35382;51.484;11.476;2022-07-05T03:29:05;16.92;;;15.93;;
49488;SDS011;35382;51.484;11.476;2022-07-05T03:30:47;18.08;;;16.60;;
49488;SDS011;35382;51.484;11.476;2022-07-05T03:32:28;18.42;;;17.33;;
49488;SDS011;35382;51.484;11.476;2022-07-05T03:34:09;17.48;;;16.38;;
49488;SDS011;35382;51.484;11.476;2022-07-05T03:35:50;18.88;;;17.70;;
49488;SDS011;35382;51.484;11.476;2022-07-05T03:37:33;18.70;;;17.63;;
49488;SDS011;35382;51.484;11.476;2022-07-05T03:39:14;17.67;;;16.38;;
49488;SDS011;35382;51.484;11.476;2022-07-05T03:40:56;17.63;;;16.30;;
49488;SDS011;35382;51.484;11.476;2022-07-05T03:42:39;17.70;;;16.50;;
49488;SDS011;35382;51.484;11.476;2022-07-05T03:44:20;17.58;;;16.48;;
49488;SDS011;35382;51.484;11.476;2022-07-05T03:46:01;17.40;;;16.23;;
49488;SDS011;35382;51.484;11.476;2022-07-05T03:47:44;16.75;;;15.57;;
49488;SDS011;35382;51.484;11.476;2022-07-05T03:49:28;16.83;;;15.73;;
49488;SDS011;35382;51.484;11.476;2022-07-05T03:51:09;16.85;;;15.75;;
49488;SDS011;35382;51.484;11.476;2022-07-05T03:52:50;17.95;;;16.75;;
49488;SDS011;35382;51.484;11.476;2022-07-05T03:54:32;17.10;;;16.00;;
49488;SDS011;35382;51.484;11.476;2022-07-05T03:56:14;16.63;;;15.52;;
49488;SDS011;35382;51.484;11.476;2022-07-05T03:58:01;16.20;;;15.20;;
49488;SDS011;35382;51.484;11.476;2022-07-05T03:59:42;16.75;;;15.45;;
49488;SDS011;35382;51.484;11.476;2022-07-05T04:01:23;16.20;;;15.13;;
49488;SDS011;35382;51.484;11.476;2022-07-05T04:03:04;16.55;;;15.25;;
49488;SDS011;35382;51.484;11.476;2022-07-05T04:04:45;16.80;;;15.73;;
49488;SDS011;35382;51.484;11.476;2022-07-05T04:06:27;16.50;;;15.20;;
49488;SDS011;35382;51.484;11.476;2022-07-05T04:08:09;16.20;;;15.00;;
49488;SDS011;35382;51.484;11.476;2022-07-05T04:09:55;15.10;;;14.00;;
49488;SDS011;35382;51.484;11.476;2022-07-05T04:11:37;14.80;;;13.77;;
49488;SDS011;35382;51.484;11.476;2022-07-05T04:13:18;13.73;;;12.73;;
49488;SDS011;35382;51.484;11.476;2022-07-05T04:14:59;13.00;;;12.00;;
49488;SDS011;35382;51.484;11.476;2022-07-05T04:16:40;14.10;;;13.10;;
49488;SDS011;35382;51.484;11.476;2022-07-05T04:18:21;15.25;;;14.35;;
49488;SDS011;35382;51.484;11.476;2022-07-05T04:20:03;13.77;;;12.77;;
49488;SDS011;35382;51.484;11.476;2022-07-05T04:21:44;13.15;;;12.32;;
49488;SDS011;35382;51.484;11.476;2022-07-05T04:23:25;11.35;;;10.45;;
49488;SDS011;35382;51.484;11.476;2022-07-05T04:25:06;11.25;;;10.27;;
49488;SDS011;35382;51.484;11.476;2022-07-05T04:26:57;9.68;;;8.77;;
49488;SDS011;35382;51.484;11.476;2022-07-05T04:28:39;9.00;;;8.20;;
49488;SDS011;35382;51.484;11.476;2022-07-05T04:30:24;8.52;;;7.75;;
49488;SDS011;35382;51.484;11.476;2022-07-05T04:32:07;8.25;;;7.60;;
49488;SDS011;35382;51.484;11.476;2022-07-05T04:33:48;8.85;;;8.02;;
49488;SDS011;35382;51.484;11.476;2022-07-05T04:35:34;8.77;;;7.97;;
49488;SDS011;35382;51.484;11.476;2022-07-05T04:37:15;7.50;;;6.90;;
49488;SDS011;35382;51.484;11.476;2022-07-05T04:38:56;7.00;;;6.47;;
49488;SDS011;35382;51.484;11.476;2022-07-05T04:40:38;7.80;;;6.82;;
49488;SDS011;35382;51.484;11.476;2022-07-05T04:42:21;8.05;;;6.45;;
49488;SDS011;35382;51.484;11.476;2022-07-05T04:44:02;7.68;;;6.20;;
49488;SDS011;35382;51.484;11.476;2022-07-05T04:45:43;7.95;;;7.07;;
49488;SDS011;35382;51.484;11.476;2022-07-05T04:47:24;6.97;;;6.35;;
49488;SDS011;35382;51.484;11.476;2022-07-05T04:49:08;7.85;;;6.75;;
49488;SDS011;35382;51.484;11.476;2022-07-05T04:50:49;7.95;;;7.25;;
49488;SDS011;35382;51.484;11.476;2022-07-05T04:52:30;8.48;;;6.45;;
49488;SDS011;35382;51.484;11.476;2022-07-05T04:54:11;6.82;;;6.20;;
49488;SDS011;35382;51.484;11.476;2022-07-05T04:55:52;7.30;;;6.60;;
49488;SDS011;35382;51.484;11.476;2022-07-05T04:57:39;7.07;;;6.38;;
49488;SDS011;35382;51.484;11.476;2022-07-05T05:01:02;6.65;;;5.97;;
49488;SDS011;35382;51.484;11.476;2022-07-05T05:02:43;7.07;;;6.13;;
49488;SDS011;35382;51.484;11.476;2022-07-05T05:04:24;8.20;;;7.38;;
49488;SDS011;35382;51.484;11.476;2022-07-05T05:06:05;8.10;;;6.50;;
49488;SDS011;35382;51.484;11.476;2022-07-05T05:07:46;7.95;;;6.93;;
49488;SDS011;35382;51.484;11.476;2022-07-05T05:09:27;7.32;;;6.60;;
49488;SDS011;35382;51.484;11.476;2022-07-05T05:11:08;6.32;;;5.70;;
49488;SDS011;35382;51.484;11.476;2022-07-05T05:12:49;7.55;;;6.53;;
49488;SDS011;35382;51.484;11.476;2022-07-05T05:14:30;7.07;;;6.50;;
49488;SDS011;35382;51.484;11.476;2022-07-05T05:16:11;6.95;;;6.22;;
49488;SDS011;35382;51.484;11.476;2022-07-05T05:17:52;6.03;;;5.47;;
49488;SDS011;35382;51.484;11.476;2022-07-05T05:19:33;7.03;;;5.35;;
49488;SDS011;35382;51.484;11.476;2022-07-05T05:21:14;5.63;;;4.97;;
49488;SDS011;35382;51.484;11.476;2022-07-05T05:22:55;6.20;;;5.50;;
49488;SDS011;35382;51.484;11.476;2022-07-05T05:24:36;5.45;;;4.95;;
49488;SDS011;35382;51.484;11.476;2022-07-05T05:26:17;6.15;;;5.55;;
49488;SDS011;35382;51.484;11.476;2022-07-05T05:27:58;6.90;;;5.20;;
49488;SDS011;35382;51.484;11.476;2022-07-05T05:29:39;8.98;;;4.78;;
49488;SDS011;35382;51.484;11.476;2022-07-05T05:31:20;5.78;;;5.03;;
49488;SDS011;35382;51.484;11.476;2022-07-05T05:33:00;6.53;;;5.25;;
49488;SDS011;35382;51.484;11.476;2022-07-05T05:34:41;6.00;;;4.78;;
49488;SDS011;35382;51.484;11.476;2022-07-05T05:36:22;9.23;;;4.72;;
49488;SDS011;35382;51.484;11.476;2022-07-05T05:38:03;7.53;;;4.20;;
49488;SDS011;35382;51.484;11.476;2022-07-05T05:39:45;7.00;;;4.43;;
49488;SDS011;35382;51.484;11.476;2022-07-05T05:41:26;7.20;;;4.85;;
49488;SDS011;35382;51.484;11.476;2022-07-05T05:43:07;5.55;;;4.30;;
49488;SDS011;35382;51.484;11.476;2022-07-05T05:44:47;5.00;;;4.20;;
49488;SDS011;35382;51.484;11.476;2022-07-05T05:46:28;6.22;;;4.35;;
49488;SDS011;35382;51.484;11.476;2022-07-05T05:48:09;6.85;;;4.32;;
49488;SDS011;35382;51.484;11.476;2022-07-05T05:49:50;7.22;;;4.13;;
49488;SDS011;35382;51.484;11.476;2022-07-05T05:51:31;5.78;;;4.60;;
49488;SDS011;35382;51.484;11.476;2022-07-05T05:53:12;5.20;;;4.18;;
49488;SDS011;35382;51.484;11.476;2022-07-05T05:54:53;6.13;;;4.55;;
49488;SDS011;35382;51.484;11.476;2022-07-05T05:56:34;5.35;;;4.35;;
49488;SDS011;35382;51.484;11.476;2022-07-05T05:58:19;6.78;;;4.28;;
49488;SDS011;35382;51.484;11.476;2022-07-05T06:00:04;6.28;;;3.83;;
49488;SDS011;35382;51.484;11.476;2022-07-05T06:01:52;6.82;;;4.10;;
49488;SDS011;35382;51.484;11.476;2022-07-05T06:03:33;5.57;;;4.50;;
49488;SDS011;35382;51.484;11.476;2022-07-05T06:05:14;5.35;;;4.45;;
49488;SDS011;35382;51.484;11.476;2022-07-05T06:06:55;8.02;;;4.95;;
49488;SDS011;35382;51.484;11.476;2022-07-05T06:08:36;7.90;;;5.07;;
49488;SDS011;35382;51.484;11.476;2022-07-05T06:10:18;4.78;;;4.35;;
49488;SDS011;35382;51.484;11.476;2022-07-05T06:12:00;6.28;;;5.20;;
49488;SDS011;35382;51.484;11.476;2022-07-05T06:13:41;8.20;;;4.70;;
49488;SDS011;35382;51.484;11.476;2022-07-05T06:15:22;6.95;;;4.70;;
49488;SDS011;35382;51.484;11.476;2022-07-05T06:17:03;6.68;;;4.80;;
49488;SDS011;35382;51.484;11.476;2022-07-05T06:18:44;6.60;;;4.90;;
49488;SDS011;35382;51.484;11.476;2022-07-05T06:20:29;8.10;;;5.60;;
49488;SDS011;35382;51.484;11.476;2022-07-05T06:22:14;6.63;;;4.70;;
49488;SDS011;35382;51.484;11.476;2022-07-05T06:23:55;8.77;;;5.43;;
49488;SDS011;35382;51.484;11.476;2022-07-05T06:25:36;6.10;;;4.80;;
49488;SDS011;35382;51.484;11.476;2022-07-05T06:27:17;5.72;;;4.95;;
49488;SDS011;35382;51.484;11.476;2022-07-05T06:28:58;7.00;;;5.45;;
49488;SDS011;35382;51.484;11.476;2022-07-05T06:30:39;6.53;;;4.88;;
49488;SDS011;35382;51.484;11.476;2022-07-05T06:32:20;7.05;;;5.18;;
49488;SDS011;35382;51.484;11.476;2022-07-05T06:34:01;7.85;;;5.10;;
49488;SDS011;35382;51.484;11.476;2022-07-05T06:35:41;5.68;;;5.28;;
49488;SDS011;35382;51.484;11.476;2022-07-05T06:37:22;7.28;;;5.22;;
49488;SDS011;35382;51.484;11.476;2022-07-05T06:39:03;5.25;;;4.75;;
49488;SDS011;35382;51.484;11.476;2022-07-05T06:40:44;5.13;;;4.63;;
49488;SDS011;35382;51.484;11.476;2022-07-05T06:42:25;6.55;;;5.00;;
49488;SDS011;35382;51.484;11.476;2022-07-05T06:44:06;6.25;;;5.25;;
49488;SDS011;35382;51.484;11.476;2022-07-05T06:45:47;7.55;;;5.30;;
49488;SDS011;35382;51.484;11.476;2022-07-05T06:47:29;7.65;;;5.13;;
49488;SDS011;35382;51.484;11.476;2022-07-05T06:49:10;6.03;;;5.50;;
49488;SDS011;35382;51.484;11.476;2022-07-05T06:50:50;7.25;;;5.90;;
49488;SDS011;35382;51.484;11.476;2022-07-05T06:52:32;6.65;;;5.90;;
49488;SDS011;35382;51.484;11.476;2022-07-05T06:54:13;8.18;;;5.82;;
49488;SDS011;35382;51.484;11.476;2022-07-05T06:55:54;6.72;;;5.70;;
49488;SDS011;35382;51.484;11.476;2022-07-05T06:57:35;6.20;;;5.22;;
49488;SDS011;35382;51.484;11.476;2022-07-05T06:59:15;7.45;;;6.10;;
49488;SDS011;35382;51.484;11.476;2022-07-05T07:00:56;8.30;;;6.35;;
49488;SDS011;35382;51.484;11.476;2022-07-05T07:02:37;6.38;;;5.78;;
49488;SDS011;35382;51.484;11.476;2022-07-05T07:04:18;6.43;;;5.82;;
49488;SDS011;35382;51.484;11.476;2022-07-05T07:05:59;7.53;;;6.20;;
49488;SDS011;35382;51.484;11.476;2022-07-05T07:07:41;6.70;;;6.00;;
49488;SDS011;35382;51.484;11.476;2022-07-05T07:09:40;5.95;;;5.35;;
49488;SDS011;35382;51.484;11.476;2022-07-05T07:11:21;6.32;;;5.72;;
49488;SDS011;35382;51.484;11.476;2022-07-05T07:13:02;7.07;;;6.22;;
49488;SDS011;35382;51.484;11.476;2022-07-05T07:14:43;6.93;;;6.28;;
49488;SDS011;35382;51.484;11.476;2022-07-05T07:16:24;9.60;;;6.30;;
49488;SDS011;35382;51.484;11.476;2022-07-05T07:18:05;6.43;;;5.80;;
49488;SDS011;35382;51.484;11.476;2022-07-05T07:19:46;7.78;;;6.25;;
49488;SDS011;35382;51.484;11.476;2022-07-05T07:21:27;8.30;;;6.45;;
49488;SDS011;35382;51.484;11.476;2022-07-05T07:23:08;6.53;;;5.93;;
49488;SDS011;35382;51.484;11.476;2022-07-05T07:24:49;6.35;;;5.80;;
49488;SDS011;35382;51.484;11.476;2022-07-05T07:26:30;8.18;;;7.38;;
49488;SDS011;35382;51.484;11.476;2022-07-05T07:28:30;7.40;;;6.40;;
49488;SDS011;35382;51.484;11.476;2022-07-05T07:30:12;6.20;;;5.53;;
49488;SDS011;35382;51.484;11.476;2022-07-05T07:31:57;6.38;;;5.28;;
49488;SDS011;35382;51.484;11.476;2022-07-05T07:33:39;6.30;;;5.55;;
49488;SDS011;35382;51.484;11.476;2022-07-05T07:35:20;6.25;;;5.68;;
49488;SDS011;35382;51.484;11.476;2022-07-05T07:37:01;7.82;;;6.75;;
49488;SDS011;35382;51.484;11.476;2022-07-05T07:38:43;6.35;;;5.63;;
49488;SDS011;35382;51.484;11.476;2022-07-05T07:40:24;6.65;;;6.05;;
49488;SDS011;35382;51.484;11.476;2022-07-05T07:42:05;7.53;;;5.88;;
49488;SDS011;35382;51.484;11.476;2022-07-05T07:43:47;7.40;;;6.47;;
49488;SDS011;35382;51.484;11.476;2022-07-05T07:45:28;7.57;;;6.25;;
49488;SDS011;35382;51.484;11.476;2022-07-05T07:47:11;6.47;;;5.50;;
49488;SDS011;35382;51.484;11.476;2022-07-05T07:48:52;6.28;;;4.93;;
49488;SDS011;35382;51.484;11.476;2022-07-05T07:50:33;14.15;;;10.70;;
49488;SDS011;35382;51.484;11.476;2022-07-05T07:52:14;18.90;;;11.55;;
49488;SDS011;35382;51.484;11.476;2022-07-05T07:53:55;18.90;;;11.48;;
49488;SDS011;35382;51.484;11.476;2022-07-05T07:55:36;7.55;;;5.47;;
49488;SDS011;35382;51.484;11.476;2022-07-05T07:57:17;6.80;;;6.13;;
49488;SDS011;35382;51.484;11.476;2022-07-05T07:58:59;6.82;;;6.22;;
49488;SDS011;35382;51.484;11.476;2022-07-05T08:00:40;9.43;;;7.30;;
49488;SDS011;35382;51.484;11.476;2022-07-05T08:02:21;7.20;;;6.60;;
49488;SDS011;35382;51.484;11.476;2022-07-05T08:04:03;6.10;;;5.50;;
49488;SDS011;35382;51.484;11.476;2022-07-05T08:05:44;6.00;;;5.40;;
49488;SDS011;35382;51.484;11.476;2022-07-05T08:07:25;5.28;;;4.78;;
49488;SDS011;35382;51.484;11.476;2022-07-05T08:09:06;7.50;;;4.95;;
49488;SDS011;35382;51.484;11.476;2022-07-05T08:10:47;6.57;;;5.00;;
49488;SDS011;35382;51.484;11.476;2022-07-05T08:12:28;5.65;;;4.65;;
49488;SDS011;35382;51.484;11.476;2022-07-05T08:14:09;6.00;;;4.70;;
49488;SDS011;35382;51.484;11.476;2022-07-05T08:15:50;7.13;;;5.18;;
49488;SDS011;35382;51.484;11.476;2022-07-05T08:17:31;7.50;;;5.15;;
49488;SDS011;35382;51.484;11.476;2022-07-05T08:19:12;6.20;;;4.50;;
49488;SDS011;35382;51.484;11.476;2022-07-05T08:21:11;5.70;;;5.10;;
49488;SDS011;35382;51.484;11.476;2022-07-05T08:23:11;6.47;;;5.28;;
49488;SDS011;35382;51.484;11.476;2022-07-05T08:24:52;5.95;;;4.30;;
49488;SDS011;35382;51.484;11.476;2022-07-05T08:26:33;5.45;;;4.82;;
49488;SDS011;35382;51.484;11.476;2022-07-05T08:28:15;7.53;;;5.13;;
49488;SDS011;35382;51.484;11.476;2022-07-05T08:29:56;6.15;;;5.18;;
49488;SDS011;35382;51.484;11.476;2022-07-05T08:31:38;7.47;;;5.00;;
49488;SDS011;35382;51.484;11.476;2022-07-05T08:33:27;6.38;;;5.38;;
49488;SDS011;35382;51.484;11.476;2022-07-05T08:35:08;5.85;;;5.28;;
49488;SDS011;35382;51.484;11.476;2022-07-05T08:36:49;6.18;;;5.00;;
49488;SDS011;35382;51.484;11.476;2022-07-05T08:38:30;6.03;;;5.43;;
49488;SDS011;35382;51.484;11.476;2022-07-05T08:40:12;6.85;;;5.30;;
49488;SDS011;35382;51.484;11.476;2022-07-05T08:41:55;6.82;;;5.28;;
49488;SDS011;35382;51.484;11.476;2022-07-05T08:43:40;6.65;;;4.80;;
49488;SDS011;35382;51.484;11.476;2022-07-05T08:45:21;5.22;;;4.72;;
49488;SDS011;35382;51.484;11.476;2022-07-05T08:47:08;5.82;;;4.68;;
49488;SDS011;35382;51.484;11.476;2022-07-05T08:48:50;5.47;;;4.90;;
49488;SDS011;35382;51.484;11.476;2022-07-05T08:50:32;5.93;;;5.13;;
49488;SDS011;35382;51.484;11.476;2022-07-05T08:52:15;7.85;;;5.10;;
49488;SDS011;35382;51.484;11.476;2022-07-05T08:53:58;6.05;;;5.13;;
49488;SDS011;35382;51.484;11.476;2022-07-05T08:55:39;6.97;;;4.82;;
49488;SDS011;35382;51.484;11.476;2022-07-05T08:57:20;5.90;;;5.32;;
49488;SDS011;35382;51.484;11.476;2022-07-05T08:59:02;5.95;;;5.43;;
49488;SDS011;35382;51.484;11.476;2022-07-05T09:00:44;6.13;;;5.07;;
49488;SDS011;35382;51.484;11.476;2022-07-05T09:02:25;5.28;;;4.78;;
49488;SDS011;35382;51.484;11.476;2022-07-05T09:04:06;7.25;;;4.95;;
49488;SDS011;35382;51.484;11.476;2022-07-05T09:05:50;6.25;;;4.90;;
49488;SDS011;35382;51.484;11.476;2022-07-05T09:07:35;7.07;;;4.97;;
49488;SDS011;35382;51.484;11.476;2022-07-05T09:09:18;6.05;;;5.00;;
49488;SDS011;35382;51.484;11.476;2022-07-05T09:11:01;7.03;;;5.00;;
49488;SDS011;35382;51.484;11.476;2022-07-05T09:12:43;5.70;;;5.10;;
49488;SDS011;35382;51.484;11.476;2022-07-05T09:14:24;5.50;;;4.80;;
49488;SDS011;35382;51.484;11.476;2022-07-05T09:16:06;5.30;;;4.50;;
49488;SDS011;35382;51.484;11.476;2022-07-05T09:17:48;5.45;;;4.97;;
49488;SDS011;35382;51.484;11.476;2022-07-05T09:19:29;7.70;;;5.22;;
49488;SDS011;35382;51.484;11.476;2022-07-05T09:21:15;6.63;;;5.10;;
49488;SDS011;35382;51.484;11.476;2022-07-05T09:23:06;5.68;;;5.05;;
49488;SDS011;35382;51.484;11.476;2022-07-05T09:24:47;8.13;;;4.78;;
49488;SDS011;35382;51.484;11.476;2022-07-05T09:26:31;8.65;;;5.47;;
49488;SDS011;35382;51.484;11.476;2022-07-05T09:28:17;9.48;;;5.03;;
49488;SDS011;35382;51.484;11.476;2022-07-05T09:29:59;10.90;;;5.63;;
49488;SDS011;35382;51.484;11.476;2022-07-05T09:31:41;9.80;;;5.18;;
49488;SDS011;35382;51.484;11.476;2022-07-05T09:33:24;8.30;;;4.85;;
49488;SDS011;35382;51.484;11.476;2022-07-05T09:35:19;6.47;;;4.20;;
49488;SDS011;35382;51.484;11.476;2022-07-05T09:37:01;6.13;;;5.32;;
49488;SDS011;35382;51.484;11.476;2022-07-05T09:38:48;4.97;;;4.28;;
49488;SDS011;35382;51.484;11.476;2022-07-05T09:40:32;8.00;;;5.00;;
49488;SDS011;35382;51.484;11.476;2022-07-05T09:42:20;6.55;;;4.95;;
49488;SDS011;35382;51.484;11.476;2022-07-05T09:44:06;7.13;;;5.18;;
49488;SDS011;35382;51.484;11.476;2022-07-05T09:47:34;5.47;;;4.70;;
49488;SDS011;35382;51.484;11.476;2022-07-05T09:49:24;5.10;;;4.45;;
49488;SDS011;35382;51.484;11.476;2022-07-05T09:51:10;7.38;;;5.50;;
49488;SDS011;35382;51.484;11.476;2022-07-05T09:52:53;5.47;;;4.97;;
49488;SDS011;35382;51.484;11.476;2022-07-05T09:54:36;5.40;;;4.72;;
49488;SDS011;35382;51.484;11.476;2022-07-05T09:56:17;5.82;;;5.18;;
49488;SDS011;35382;51.484;11.476;2022-07-05T09:57:58;5.82;;;5.07;;
49488;SDS011;35382;51.484;11.476;2022-07-05T09:59:39;5.95;;;5.00;;
49488;SDS011;35382;51.484;11.476;2022-07-05T10:01:24;6.38;;;4.90;;
49488;SDS011;35382;51.484;11.476;2022-07-05T10:03:09;7.88;;;4.85;;
49488;SDS011;35382;51.484;11.476;2022-07-05T10:04:50;7.35;;;5.00;;
49488;SDS011;35382;51.484;11.476;2022-07-05T10:06:48;7.53;;;4.63;;
49488;SDS011;35382;51.484;11.476;2022-07-05T10:08:29;6.32;;;4.65;;